sensor_id;sensor_type;location;lat;lon;timestamp;pressure;altitude;pressure_sealevel;temperature;humidity
78149;BME280;67396;42.664;23.382;2023-07-24T00:00:59;95168.88;;;23.58;44.58
78149;BME280;67396;42.664;23.382;2023-07-24T00:03:24;95169.50;;;23.53;45.09
78149;BME280;67396;42.664;23.382;2023-07-24T00:05:49;95169.66;;;23.50;45.23
78149;BME280;67396;42.664;23.382;2023-07-24T00:08:15;95164.16;;;23.37;45.42
78149;BME280;67396;42.664;23.382;2023-07-24T00:10:40;95157.00;;;23.36;45.64
78149;BME280;67396;42.664;23.382;2023-07-24T00:13:06;95157.59;;;23.40;45.43
78149;BME280;67396;42.664;23.382;2023-07-24T00:15:32;95155.31;;;23.48;44.98
78149;BME280;67396;42.664;23.382;2023-07-24T00:17:57;95161.69;;;23.39;45.35
78149;BME280;67396;42.664;23.382;2023-07-24T00:20:23;95151.63;;;23.60;44.65
78149;BME280;67396;42.664;23.382;2023-07-24T00:22:49;95159.25;;;23.59;44.97
78149;BME280;67396;42.664;23.382;2023-07-24T00:25:15;95155.38;;;23.57;44.72
78149;BME280;67396;42.664;23.382;2023-07-24T00:27:40;95155.00;;;23.46;45.30
78149;BME280;67396;42.664;23.382;2023-07-24T00:30:06;95163.97;;;22.82;46.99
78149;BME280;67396;42.664;23.382;2023-07-24T00:35:16;95158.13;;;21.33;51.75
78149;BME280;67396;42.664;23.382;2023-07-24T00:37:41;95162.50;;;21.09;52.35
78149;BME280;67396;42.664;23.382;2023-07-24T00:40:07;95158.47;;;21.35;51.61
78149;BME280;67396;42.664;23.382;2023-07-24T00:42:33;95153.06;;;21.54;50.84
78149;BME280;67396;42.664;23.382;2023-07-24T00:44:58;95157.28;;;21.58;50.85
78149;BME280;67396;42.664;23.382;2023-07-24T00:47:25;95159.56;;;21.72;50.53
78149;BME280;67396;42.664;23.382;2023-07-24T00:49:51;95154.72;;;21.98;50.03
78149;BME280;67396;42.664;23.382;2023-07-24T00:52:17;95157.56;;;22.29;48.71
78149;BME280;67396;42.664;23.382;2023-07-24T00:54:43;95150.22;;;22.23;48.98
78149;BME280;67396;42.664;23.382;2023-07-24T00:57:09;95151.72;;;22.14;49.96
78149;BME280;67396;42.664;23.382;2023-07-24T00:59:34;95156.16;;;21.90;50.41
78149;BME280;67396;42.664;23.382;2023-07-24T01:02:00;95144.94;;;22.03;50.63
78149;BME280;67396;42.664;23.382;2023-07-24T01:04:26;95145.97;;;21.96;50.61
78149;BME280;67396;42.664;23.382;2023-07-24T01:06:51;95152.00;;;21.95;50.97
78149;BME280;67396;42.664;23.382;2023-07-24T01:09:16;95149.03;;;21.89;51.04
78149;BME280;67396;42.664;23.382;2023-07-24T01:11:46;95149.31;;;21.91;51.05
78149;BME280;67396;42.664;23.382;2023-07-24T01:14:40;95148.09;;;22.05;51.14
78149;BME280;67396;42.664;23.382;2023-07-24T01:19:47;95143.59;;;22.29;51.01
78149;BME280;67396;42.664;23.382;2023-07-24T01:22:38;95149.00;;;22.24;51.50
78149;BME280;67396;42.664;23.382;2023-07-24T01:25:17;95138.78;;;22.30;52.03
78149;BME280;67396;42.664;23.382;2023-07-24T01:27:45;95142.00;;;22.50;50.98
78149;BME280;67396;42.664;23.382;2023-07-24T01:30:12;95142.84;;;22.38;48.45
78149;BME280;67396;42.664;23.382;2023-07-24T01:32:39;95133.16;;;22.08;49.04
78149;BME280;67396;42.664;23.382;2023-07-24T01:35:05;95139.97;;;21.51;50.98
78149;BME280;67396;42.664;23.382;2023-07-24T01:37:31;95138.25;;;21.06;51.85
78149;BME280;67396;42.664;23.382;2023-07-24T01:39:56;95139.28;;;20.74;53.19
78149;BME280;67396;42.664;23.382;2023-07-24T01:42:23;95131.34;;;20.47;53.97
78149;BME280;67396;42.664;23.382;2023-07-24T01:44:53;95136.28;;;20.14;55.41
78149;BME280;67396;42.664;23.382;2023-07-24T01:47:19;95137.31;;;19.91;56.64
78149;BME280;67396;42.664;23.382;2023-07-24T01:49:45;95161.38;;;19.85;56.79
78149;BME280;67396;42.664;23.382;2023-07-24T01:52:10;95171.41;;;20.12;56.12
78149;BME280;67396;42.664;23.382;2023-07-24T01:54:35;95171.84;;;20.23;55.90
78149;BME280;67396;42.664;23.382;2023-07-24T01:57:01;95162.41;;;20.20;56.05
78149;BME280;67396;42.664;23.382;2023-07-24T01:59:26;95160.03;;;20.48;54.92
78149;BME280;67396;42.664;23.382;2023-07-24T02:01:52;95138.16;;;20.59;54.17
78149;BME280;67396;42.664;23.382;2023-07-24T02:04:17;95144.72;;;20.52;54.31
78149;BME280;67396;42.664;23.382;2023-07-24T02:06:42;95148.88;;;20.60;54.24
78149;BME280;67396;42.664;23.382;2023-07-24T02:09:08;95142.88;;;20.75;54.04
78149;BME280;67396;42.664;23.382;2023-07-24T02:11:33;95145.19;;;20.63;54.40
78149;BME280;67396;42.664;23.382;2023-07-24T02:13:59;95142.19;;;20.71;54.17
78149;BME280;67396;42.664;23.382;2023-07-24T02:16:25;95143.19;;;20.89;53.88
78149;BME280;67396;42.664;23.382;2023-07-24T02:18:50;95144.09;;;20.74;54.41
78149;BME280;67396;42.664;23.382;2023-07-24T02:21:15;95142.19;;;20.71;54.89
78149;BME280;67396;42.664;23.382;2023-07-24T02:23:41;95149.34;;;20.84;54.53
78149;BME280;67396;42.664;23.382;2023-07-24T02:26:06;95150.69;;;20.92;54.86
78149;BME280;67396;42.664;23.382;2023-07-24T02:28:31;95146.56;;;20.84;54.98
78149;BME280;67396;42.664;23.382;2023-07-24T02:30:57;95138.63;;;20.83;54.27
78149;BME280;67396;42.664;23.382;2023-07-24T02:33:22;95141.94;;;20.78;54.01
78149;BME280;67396;42.664;23.382;2023-07-24T02:35:49;95133.34;;;20.34;55.22
78149;BME280;67396;42.664;23.382;2023-07-24T02:38:16;95140.13;;;19.91;56.30
78149;BME280;67396;42.664;23.382;2023-07-24T02:40:42;95146.06;;;19.48;57.51
78149;BME280;67396;42.664;23.382;2023-07-24T02:43:07;95141.63;;;19.35;57.98
78149;BME280;67396;42.664;23.382;2023-07-24T02:45:39;95138.78;;;19.06;58.93
78149;BME280;67396;42.664;23.382;2023-07-24T02:48:05;95148.25;;;19.08;59.06
78149;BME280;67396;42.664;23.382;2023-07-24T02:50:30;95147.13;;;19.22;58.50
78149;BME280;67396;42.664;23.382;2023-07-24T02:52:56;95146.66;;;19.56;57.22
78149;BME280;67396;42.664;23.382;2023-07-24T02:55:21;95150.69;;;19.84;56.25
78149;BME280;67396;42.664;23.382;2023-07-24T02:57:46;95138.34;;;19.98;55.55
78149;BME280;67396;42.664;23.382;2023-07-24T03:00:12;95137.25;;;20.08;55.47
78149;BME280;67396;42.664;23.382;2023-07-24T03:02:38;95136.91;;;20.06;54.73
78149;BME280;67396;42.664;23.382;2023-07-24T03:05:04;95139.41;;;20.16;54.42
78149;BME280;67396;42.664;23.382;2023-07-24T03:07:31;95140.63;;;20.15;54.65
78149;BME280;67396;42.664;23.382;2023-07-24T03:09:56;95131.50;;;20.27;54.04
78149;BME280;67396;42.664;23.382;2023-07-24T03:12:22;95127.66;;;20.38;54.17
78149;BME280;67396;42.664;23.382;2023-07-24T03:14:47;95128.66;;;20.44;53.90
78149;BME280;67396;42.664;23.382;2023-07-24T03:17:13;95132.00;;;20.51;53.94
78149;BME280;67396;42.664;23.382;2023-07-24T03:19:38;95130.16;;;20.32;54.57
78149;BME280;67396;42.664;23.382;2023-07-24T03:22:04;95138.88;;;20.21;55.13
78149;BME280;67396;42.664;23.382;2023-07-24T03:24:29;95131.09;;;20.42;54.39
78149;BME280;67396;42.664;23.382;2023-07-24T03:26:54;95136.38;;;20.52;54.33
78149;BME280;67396;42.664;23.382;2023-07-24T03:29:20;95134.81;;;20.39;54.67
78149;BME280;67396;42.664;23.382;2023-07-24T03:31:45;95140.16;;;20.46;54.59
78149;BME280;67396;42.664;23.382;2023-07-24T03:34:11;95136.16;;;20.47;54.41
78149;BME280;67396;42.664;23.382;2023-07-24T03:36:36;95139.53;;;20.13;55.55
78149;BME280;67396;42.664;23.382;2023-07-24T03:39:02;95142.63;;;20.15;55.27
78149;BME280;67396;42.664;23.382;2023-07-24T03:41:27;95148.63;;;20.01;56.03
78149;BME280;67396;42.664;23.382;2023-07-24T03:43:53;95140.53;;;19.77;56.89
78149;BME280;67396;42.664;23.382;2023-07-24T03:46:18;95140.81;;;19.67;57.60
78149;BME280;67396;42.664;23.382;2023-07-24T03:48:44;95145.47;;;19.99;56.37
78149;BME280;67396;42.664;23.382;2023-07-24T03:51:09;95145.47;;;19.99;56.36
78149;BME280;67396;42.664;23.382;2023-07-24T03:53:34;95147.75;;;20.04;56.46
78149;BME280;67396;42.664;23.382;2023-07-24T03:56:00;95158.25;;;20.25;55.83
78149;BME280;67396;42.664;23.382;2023-07-24T03:58:25;95153.88;;;20.40;55.32
78149;BME280;67396;42.664;23.382;2023-07-24T04:00:50;95158.47;;;20.18;55.67
78149;BME280;67396;42.664;23.382;2023-07-24T04:03:16;95160.00;;;20.35;55.65
78149;BME280;67396;42.664;23.382;2023-07-24T04:05:42;95158.13;;;20.45;55.39
78149;BME280;67396;42.664;23.382;2023-07-24T04:08:07;95145.19;;;20.63;55.14
78149;BME280;67396;42.664;23.382;2023-07-24T04:10:33;95151.34;;;20.71;54.90
78149;BME280;67396;42.664;23.382;2023-07-24T04:12:58;95161.50;;;20.90;54.02
78149;BME280;67396;42.664;23.382;2023-07-24T04:15:24;95155.69;;;21.10;53.65
78149;BME280;67396;42.664;23.382;2023-07-24T04:17:49;95159.69;;;21.34;53.56
78149;BME280;67396;42.664;23.382;2023-07-24T04:20:15;95165.72;;;21.46;53.80
78149;BME280;67396;42.664;23.382;2023-07-24T04:22:40;95167.31;;;21.68;53.61
78149;BME280;67396;42.664;23.382;2023-07-24T04:25:06;95151.88;;;21.29;54.25
78149;BME280;67396;42.664;23.382;2023-07-24T04:27:32;95169.94;;;21.12;55.13
78149;BME280;67396;42.664;23.382;2023-07-24T04:29:57;95164.06;;;21.23;55.42
78149;BME280;67396;42.664;23.382;2023-07-24T04:32:23;95166.84;;;21.35;54.96
78149;BME280;67396;42.664;23.382;2023-07-24T04:34:48;95160.53;;;21.57;54.00
78149;BME280;67396;42.664;23.382;2023-07-24T04:37:14;95170.19;;;21.77;54.00
78149;BME280;67396;42.664;23.382;2023-07-24T04:39:39;95169.53;;;21.73;54.00
78149;BME280;67396;42.664;23.382;2023-07-24T04:42:05;95171.59;;;21.82;53.46
78149;BME280;67396;42.664;23.382;2023-07-24T04:44:30;95165.97;;;22.07;51.70
78149;BME280;67396;42.664;23.382;2023-07-24T04:46:57;95159.03;;;22.43;50.86
78149;BME280;67396;42.664;23.382;2023-07-24T04:49:23;95164.75;;;22.83;48.40
78149;BME280;67396;42.664;23.382;2023-07-24T04:51:48;95167.66;;;22.79;48.14
78149;BME280;67396;42.664;23.382;2023-07-24T04:54:13;95173.97;;;22.93;47.51
78149;BME280;67396;42.664;23.382;2023-07-24T04:56:39;95179.06;;;23.25;46.61
78149;BME280;67396;42.664;23.382;2023-07-24T04:59:04;95171.31;;;23.38;46.02
78149;BME280;67396;42.664;23.382;2023-07-24T05:01:30;95169.75;;;23.37;46.52
78149;BME280;67396;42.664;23.382;2023-07-24T05:03:55;95167.16;;;23.52;46.37
78149;BME280;67396;42.664;23.382;2023-07-24T05:06:20;95172.19;;;23.75;46.93
78149;BME280;67396;42.664;23.382;2023-07-24T05:08:46;95164.06;;;23.68;47.83
78149;BME280;67396;42.664;23.382;2023-07-24T05:11:11;95177.03;;;23.93;47.28
78149;BME280;67396;42.664;23.382;2023-07-24T05:13:37;95177.03;;;23.93;48.36
78149;BME280;67396;42.664;23.382;2023-07-24T05:16:02;95179.41;;;24.22;47.05
78149;BME280;67396;42.664;23.382;2023-07-24T05:18:27;95170.50;;;24.14;47.72
78149;BME280;67396;42.664;23.382;2023-07-24T05:20:53;95170.03;;;23.97;48.02
78149;BME280;67396;42.664;23.382;2023-07-24T05:23:18;95166.00;;;24.26;47.32
78149;BME280;67396;42.664;23.382;2023-07-24T05:25:43;95174.22;;;24.11;47.66
78149;BME280;67396;42.664;23.382;2023-07-24T05:28:09;95174.41;;;24.26;47.26
78149;BME280;67396;42.664;23.382;2023-07-24T05:30:35;95165.16;;;24.62;46.06
78149;BME280;67396;42.664;23.382;2023-07-24T05:33:00;95161.00;;;24.90;44.35
78149;BME280;67396;42.664;23.382;2023-07-24T05:35:26;95161.56;;;24.61;45.87
78149;BME280;67396;42.664;23.382;2023-07-24T05:37:51;95175.28;;;24.68;44.48
78149;BME280;67396;42.664;23.382;2023-07-24T05:40:17;95158.38;;;24.96;44.41
78149;BME280;67396;42.664;23.382;2023-07-24T05:42:42;95162.84;;;25.11;43.42
78149;BME280;67396;42.664;23.382;2023-07-24T05:45:09;95166.50;;;24.94;43.05
78149;BME280;67396;42.664;23.382;2023-07-24T05:47:36;95159.19;;;25.20;42.40
78149;BME280;67396;42.664;23.382;2023-07-24T05:50:02;95163.94;;;25.71;41.31
78149;BME280;67396;42.664;23.382;2023-07-24T05:52:27;95148.66;;;25.86;41.41
78149;BME280;67396;42.664;23.382;2023-07-24T05:54:54;95146.16;;;25.89;41.25
78149;BME280;67396;42.664;23.382;2023-07-24T05:57:19;95138.63;;;25.95;41.42
78149;BME280;67396;42.664;23.382;2023-07-24T05:59:45;95139.56;;;25.92;41.08
78149;BME280;67396;42.664;23.382;2023-07-24T06:02:10;95139.88;;;25.70;42.63
78149;BME280;67396;42.664;23.382;2023-07-24T06:04:36;95144.69;;;26.17;41.31
78149;BME280;67396;42.664;23.382;2023-07-24T06:07:01;95136.34;;;26.22;42.08
78149;BME280;67396;42.664;23.382;2023-07-24T06:09:27;95133.34;;;25.88;42.54
78149;BME280;67396;42.664;23.382;2023-07-24T06:11:52;95130.47;;;25.97;43.78
78149;BME280;67396;42.664;23.382;2023-07-24T06:14:18;95120.59;;;26.16;43.18
78149;BME280;67396;42.664;23.382;2023-07-24T06:16:43;95124.75;;;26.59;41.10
78149;BME280;67396;42.664;23.382;2023-07-24T06:19:09;95131.66;;;26.73;41.30
78149;BME280;67396;42.664;23.382;2023-07-24T06:21:34;95138.34;;;26.75;40.97
78149;BME280;67396;42.664;23.382;2023-07-24T06:23:59;95134.84;;;26.36;40.78
78149;BME280;67396;42.664;23.382;2023-07-24T06:26:25;95130.13;;;26.18;41.68
78149;BME280;67396;42.664;23.382;2023-07-24T06:28:50;95137.56;;;26.45;41.77
78149;BME280;67396;42.664;23.382;2023-07-24T06:31:15;95133.00;;;26.77;41.00
78149;BME280;67396;42.664;23.382;2023-07-24T06:33:41;95134.38;;;26.96;40.60
78149;BME280;67396;42.664;23.382;2023-07-24T06:36:10;95123.59;;;26.95;39.76
78149;BME280;67396;42.664;23.382;2023-07-24T06:38:36;95126.47;;;27.15;39.65
78149;BME280;67396;42.664;23.382;2023-07-24T06:41:01;95132.78;;;27.10;40.38
78149;BME280;67396;42.664;23.382;2023-07-24T06:43:28;95131.69;;;27.22;39.98
78149;BME280;67396;42.664;23.382;2023-07-24T06:45:53;95124.44;;;27.36;39.98
78149;BME280;67396;42.664;23.382;2023-07-24T06:48:19;95119.84;;;27.18;39.87
78149;BME280;67396;42.664;23.382;2023-07-24T06:50:44;95128.06;;;26.72;41.17
78149;BME280;67396;42.664;23.382;2023-07-24T06:53:10;95124.47;;;26.72;41.10
78149;BME280;67396;42.664;23.382;2023-07-24T06:55:35;95133.84;;;26.83;41.13
78149;BME280;67396;42.664;23.382;2023-07-24T06:58:00;95129.41;;;27.06;39.09
78149;BME280;67396;42.664;23.382;2023-07-24T07:00:26;95128.91;;;27.43;39.09
78149;BME280;67396;42.664;23.382;2023-07-24T07:02:51;95132.13;;;27.35;38.58
78149;BME280;67396;42.664;23.382;2023-07-24T07:05:17;95130.34;;;27.53;38.94
78149;BME280;67396;42.664;23.382;2023-07-24T07:07:43;95134.06;;;27.79;38.95
78149;BME280;67396;42.664;23.382;2023-07-24T07:10:08;95134.94;;;29.09;35.60
78149;BME280;67396;42.664;23.382;2023-07-24T07:12:34;95133.09;;;30.34;33.39
78149;BME280;67396;42.664;23.382;2023-07-24T07:14:59;95135.16;;;31.95;30.43
78149;BME280;67396;42.664;23.382;2023-07-24T07:17:24;95131.66;;;32.82;28.86
78149;BME280;67396;42.664;23.382;2023-07-24T07:19:50;95123.47;;;33.62;27.59
78149;BME280;67396;42.664;23.382;2023-07-24T07:22:16;95117.91;;;34.24;26.27
78149;BME280;67396;42.664;23.382;2023-07-24T07:24:41;95123.47;;;34.73;25.57
78149;BME280;67396;42.664;23.382;2023-07-24T07:27:08;95126.25;;;35.10;24.75
78149;BME280;67396;42.664;23.382;2023-07-24T07:29:33;95113.63;;;35.06;25.10
78149;BME280;67396;42.664;23.382;2023-07-24T07:31:59;95122.09;;;34.80;25.43
78149;BME280;67396;42.664;23.382;2023-07-24T07:34:24;95116.94;;;32.31;30.21
78149;BME280;67396;42.664;23.382;2023-07-24T07:36:50;95117.22;;;30.75;32.28
78149;BME280;67396;42.664;23.382;2023-07-24T07:39:15;95117.00;;;30.08;34.23
78149;BME280;67396;42.664;23.382;2023-07-24T07:41:40;95121.66;;;30.11;34.48
78149;BME280;67396;42.664;23.382;2023-07-24T07:44:06;95110.94;;;30.38;33.65
78149;BME280;67396;42.664;23.382;2023-07-24T07:46:32;95110.09;;;30.15;34.32
78149;BME280;67396;42.664;23.382;2023-07-24T07:48:57;95110.28;;;30.00;33.88
78149;BME280;67396;42.664;23.382;2023-07-24T07:51:22;95112.66;;;30.07;33.02
78149;BME280;67396;42.664;23.382;2023-07-24T07:53:50;95111.66;;;30.21;32.80
78149;BME280;67396;42.664;23.382;2023-07-24T07:56:16;95113.41;;;30.02;33.82
78149;BME280;67396;42.664;23.382;2023-07-24T07:58:41;95115.94;;;29.15;35.61
78149;BME280;67396;42.664;23.382;2023-07-24T08:01:07;95122.13;;;28.82;36.52
78149;BME280;67396;42.664;23.382;2023-07-24T08:03:32;95111.69;;;29.31;35.73
78149;BME280;67396;42.664;23.382;2023-07-24T08:05:58;95110.28;;;29.15;36.07
78149;BME280;67396;42.664;23.382;2023-07-24T08:08:25;95110.84;;;29.19;34.52
78149;BME280;67396;42.664;23.382;2023-07-24T08:10:51;95109.81;;;29.53;34.76
78149;BME280;67396;42.664;23.382;2023-07-24T08:13:16;95108.25;;;30.01;33.71
78149;BME280;67396;42.664;23.382;2023-07-24T08:15:41;95106.59;;;30.53;32.93
78149;BME280;67396;42.664;23.382;2023-07-24T08:18:07;95106.28;;;30.23;33.37
78149;BME280;67396;42.664;23.382;2023-07-24T08:20:35;95110.38;;;29.26;34.63
78149;BME280;67396;42.664;23.382;2023-07-24T08:23:01;95107.34;;;29.35;34.67
78149;BME280;67396;42.664;23.382;2023-07-24T08:25:26;95098.59;;;29.33;35.03
78149;BME280;67396;42.664;23.382;2023-07-24T08:27:52;95101.06;;;29.57;34.64
78149;BME280;67396;42.664;23.382;2023-07-24T08:30:18;95092.28;;;29.49;33.88
78149;BME280;67396;42.664;23.382;2023-07-24T08:32:43;95093.91;;;29.67;34.10
78149;BME280;67396;42.664;23.382;2023-07-24T08:35:09;95087.44;;;30.15;33.74
78149;BME280;67396;42.664;23.382;2023-07-24T08:37:34;95080.03;;;30.45;31.53
78149;BME280;67396;42.664;23.382;2023-07-24T08:40:00;95084.13;;;30.27;31.36
78149;BME280;67396;42.664;23.382;2023-07-24T08:42:26;95079.53;;;30.47;31.21
78149;BME280;67396;42.664;23.382;2023-07-24T08:44:53;95083.44;;;30.83;31.42
78149;BME280;67396;42.664;23.382;2023-07-24T08:47:19;95074.69;;;30.86;32.17
78149;BME280;67396;42.664;23.382;2023-07-24T08:49:46;95076.47;;;30.89;31.08
78149;BME280;67396;42.664;23.382;2023-07-24T08:52:11;95069.56;;;31.13;30.70
78149;BME280;67396;42.664;23.382;2023-07-24T08:54:37;95076.72;;;32.10;29.34
78149;BME280;67396;42.664;23.382;2023-07-24T08:57:06;95072.13;;;33.49;27.35
78149;BME280;67396;42.664;23.382;2023-07-24T08:59:32;95060.22;;;34.56;25.34
78149;BME280;67396;42.664;23.382;2023-07-24T09:01:57;95059.75;;;35.61;23.76
78149;BME280;67396;42.664;23.382;2023-07-24T09:04:24;95061.91;;;36.34;22.91
78149;BME280;67396;42.664;23.382;2023-07-24T09:06:50;95063.66;;;36.84;21.80
78149;BME280;67396;42.664;23.382;2023-07-24T09:09:16;95060.34;;;37.14;22.01
78149;BME280;67396;42.664;23.382;2023-07-24T09:11:53;95063.09;;;37.48;21.59
78149;BME280;67396;42.664;23.382;2023-07-24T09:16:47;95054.50;;;37.69;20.97
78149;BME280;67396;42.664;23.382;2023-07-24T09:19:19;95052.78;;;37.45;20.51
78149;BME280;67396;42.664;23.382;2023-07-24T09:21:45;95059.56;;;37.34;20.55
78149;BME280;67396;42.664;23.382;2023-07-24T09:24:14;95055.50;;;36.67;20.96
78149;BME280;67396;42.664;23.382;2023-07-24T09:26:52;95043.66;;;36.37;21.13
78149;BME280;67396;42.664;23.382;2023-07-24T09:29:18;95043.03;;;36.65;21.72
78149;BME280;67396;42.664;23.382;2023-07-24T09:31:44;95037.78;;;36.89;21.67
78149;BME280;67396;42.664;23.382;2023-07-24T09:34:16;95036.22;;;36.88;20.94
78149;BME280;67396;42.664;23.382;2023-07-24T09:36:42;95034.75;;;36.95;20.88
78149;BME280;67396;42.664;23.382;2023-07-24T09:39:08;95028.63;;;37.33;21.51
78149;BME280;67396;42.664;23.382;2023-07-24T09:41:39;95016.75;;;37.57;20.32
78149;BME280;67396;42.664;23.382;2023-07-24T09:44:06;95018.78;;;37.70;20.25
78149;BME280;67396;42.664;23.382;2023-07-24T09:46:32;95010.31;;;37.92;20.19
78149;BME280;67396;42.664;23.382;2023-07-24T09:48:58;95000.03;;;37.97;20.50
78149;BME280;67396;42.664;23.382;2023-07-24T09:51:24;94994.25;;;38.25;20.17
78149;BME280;67396;42.664;23.382;2023-07-24T09:54:06;94991.72;;;38.14;19.51
78149;BME280;67396;42.664;23.382;2023-07-24T09:56:33;94994.00;;;38.08;20.08
78149;BME280;67396;42.664;23.382;2023-07-24T09:59:00;94979.50;;;38.21;20.16
78149;BME280;67396;42.664;23.382;2023-07-24T10:01:27;94984.28;;;38.26;20.24
78149;BME280;67396;42.664;23.382;2023-07-24T10:03:53;94988.63;;;38.12;18.99
78149;BME280;67396;42.664;23.382;2023-07-24T10:06:20;94986.34;;;38.18;19.24
78149;BME280;67396;42.664;23.382;2023-07-24T10:08:47;94985.97;;;38.14;18.96
78149;BME280;67396;42.664;23.382;2023-07-24T10:11:14;94966.00;;;38.01;19.18
78149;BME280;67396;42.664;23.382;2023-07-24T10:13:43;94965.94;;;37.86;19.11
78149;BME280;67396;42.664;23.382;2023-07-24T10:16:09;94962.47;;;37.72;19.67
78149;BME280;67396;42.664;23.382;2023-07-24T10:18:35;94961.06;;;37.65;19.80
78149;BME280;67396;42.664;23.382;2023-07-24T10:21:08;94960.97;;;37.50;20.31
78149;BME280;67396;42.664;23.382;2023-07-24T10:23:43;94967.19;;;37.41;20.41
78149;BME280;67396;42.664;23.382;2023-07-24T10:26:09;94951.75;;;37.44;20.07
78149;BME280;67396;42.664;23.382;2023-07-24T10:28:37;94956.44;;;37.26;20.10
78149;BME280;67396;42.664;23.382;2023-07-24T10:31:18;94951.75;;;37.16;20.60
78149;BME280;67396;42.664;23.382;2023-07-24T10:33:47;94944.25;;;37.13;20.66
78149;BME280;67396;42.664;23.382;2023-07-24T10:36:17;94954.84;;;37.18;20.53
78149;BME280;67396;42.664;23.382;2023-07-24T10:38:44;94954.00;;;37.10;20.60
78149;BME280;67396;42.664;23.382;2023-07-24T10:41:11;94942.13;;;37.06;20.46
78149;BME280;67396;42.664;23.382;2023-07-24T10:43:47;94947.44;;;37.02;20.57
78149;BME280;67396;42.664;23.382;2023-07-24T10:46:15;94936.44;;;36.85;20.79
78149;BME280;67396;42.664;23.382;2023-07-24T10:48:49;94946.31;;;36.63;21.30
78149;BME280;67396;42.664;23.382;2023-07-24T10:51:14;94937.50;;;36.74;21.42
78149;BME280;67396;42.664;23.382;2023-07-24T10:53:49;94925.91;;;36.59;21.18
78149;BME280;67396;42.664;23.382;2023-07-24T10:56:16;94929.00;;;35.93;22.30
78149;BME280;67396;42.664;23.382;2023-07-24T10:58:42;94927.16;;;34.45;24.32
78149;BME280;67396;42.664;23.382;2023-07-24T11:01:08;94927.75;;;32.77;27.08
78149;BME280;67396;42.664;23.382;2023-07-24T11:03:37;94921.53;;;32.48;27.41
78149;BME280;67396;42.664;23.382;2023-07-24T11:06:03;94923.59;;;32.78;26.97
78149;BME280;67396;42.664;23.382;2023-07-24T11:08:29;94914.28;;;33.02;26.96
78149;BME280;67396;42.664;23.382;2023-07-24T11:10:57;94909.63;;;32.80;28.18
78149;BME280;67396;42.664;23.382;2023-07-24T11:13:24;94906.97;;;32.58;28.24
78149;BME280;67396;42.664;23.382;2023-07-24T11:15:50;94900.22;;;32.61;27.79
78149;BME280;67396;42.664;23.382;2023-07-24T11:18:17;94901.72;;;32.67;27.99
78149;BME280;67396;42.664;23.382;2023-07-24T11:20:52;94893.44;;;32.69;27.70
78149;BME280;67396;42.664;23.382;2023-07-24T11:23:19;94894.03;;;32.62;28.12
78149;BME280;67396;42.664;23.382;2023-07-24T11:25:45;94894.28;;;32.34;28.27
78149;BME280;67396;42.664;23.382;2023-07-24T11:28:13;94883.59;;;32.16;28.02
78149;BME280;67396;42.664;23.382;2023-07-24T11:30:38;94887.56;;;31.55;27.14
78149;BME280;67396;42.664;23.382;2023-07-24T11:33:06;94881.47;;;31.40;27.40
78149;BME280;67396;42.664;23.382;2023-07-24T11:35:33;94881.13;;;31.49;28.41
78149;BME280;67396;42.664;23.382;2023-07-24T11:37:58;94883.91;;;31.60;28.09
78149;BME280;67396;42.664;23.382;2023-07-24T11:40:35;94881.31;;;31.73;28.13
78149;BME280;67396;42.664;23.382;2023-07-24T11:43:02;94879.78;;;31.61;28.18
78149;BME280;67396;42.664;23.382;2023-07-24T11:45:29;94869.63;;;31.36;29.03
78149;BME280;67396;42.664;23.382;2023-07-24T11:47:54;94870.44;;;31.25;29.00
78149;BME280;67396;42.664;23.382;2023-07-24T11:50:21;94872.75;;;31.27;29.43
78149;BME280;67396;42.664;23.382;2023-07-24T11:52:49;94868.06;;;31.35;29.36
78149;BME280;67396;42.664;23.382;2023-07-24T11:55:22;94862.97;;;31.28;29.14
78149;BME280;67396;42.664;23.382;2023-07-24T11:57:56;94867.59;;;31.31;29.48
78149;BME280;67396;42.664;23.382;2023-07-24T12:00:22;94864.69;;;31.42;29.63
78149;BME280;67396;42.664;23.382;2023-07-24T12:02:48;94857.53;;;31.30;30.08
78149;BME280;67396;42.664;23.382;2023-07-24T12:05:14;94865.97;;;31.41;29.73
78149;BME280;67396;42.664;23.382;2023-07-24T12:07:42;94859.00;;;31.48;29.88
78149;BME280;67396;42.664;23.382;2023-07-24T12:10:09;94856.34;;;31.55;29.56
78149;BME280;67396;42.664;23.382;2023-07-24T12:12:44;94857.59;;;31.60;29.65
78149;BME280;67396;42.664;23.382;2023-07-24T12:15:11;94860.84;;;31.39;30.06
78149;BME280;67396;42.664;23.382;2023-07-24T12:17:37;94856.56;;;31.05;30.93
78149;BME280;67396;42.664;23.382;2023-07-24T12:20:07;94859.06;;;30.67;31.62
78149;BME280;67396;42.664;23.382;2023-07-24T12:22:37;94861.03;;;30.89;31.56
78149;BME280;67396;42.664;23.382;2023-07-24T12:25:04;94857.34;;;31.05;31.11
78149;BME280;67396;42.664;23.382;2023-07-24T12:27:30;94857.34;;;31.17;31.16
78149;BME280;67396;42.664;23.382;2023-07-24T12:29:56;94850.06;;;31.27;31.17
78149;BME280;67396;42.664;23.382;2023-07-24T12:32:22;94849.69;;;30.89;30.71
78149;BME280;67396;42.664;23.382;2023-07-24T12:34:49;94848.66;;;30.92;30.76
78149;BME280;67396;42.664;23.382;2023-07-24T12:37:14;94847.09;;;30.91;31.04
78149;BME280;67396;42.664;23.382;2023-07-24T12:39:40;94838.81;;;31.10;30.66
78149;BME280;67396;42.664;23.382;2023-07-24T12:42:05;94834.94;;;31.13;31.16
78149;BME280;67396;42.664;23.382;2023-07-24T12:44:32;94835.44;;;31.06;31.20
78149;BME280;67396;42.664;23.382;2023-07-24T12:46:57;94832.38;;;31.10;31.40
78149;BME280;67396;42.664;23.382;2023-07-24T12:49:22;94826.81;;;30.71;31.94
78149;BME280;67396;42.664;23.382;2023-07-24T12:51:48;94828.91;;;30.64;30.71
78149;BME280;67396;42.664;23.382;2023-07-24T12:54:13;94830.13;;;30.80;30.55